Time;durP1;ratioP1;P1;durP2;ratioP2;P2;SDS_P1;SDS_P2;PMS_P1;PMS_P2;Temp;Humidity;BMP_temperature;BMP_pressure;BME280_temperature;BME280_humidity;BME280_pressure;Samples;Min_cycle;Max_cycle;Signal;HPM_P1;HPM_P2
2024/01/03 00:00:55;;;;;;;10.10;2.25;;;8.40;99.90;;;;;;5111063;28;20402;-84
2024/01/03 00:03:22;;;;;;;15.55;2.42;;;8.10;99.90;;;;;;5096413;27;20512;-83
2024/01/03 00:05:48;;;;;;;12.80;1.90;;;8.40;99.90;;;;;;5113063;28;20060;-85
2024/01/03 00:08:34;;;;;;;13.43;2.15;;;7.90;99.90;;;;;;5111382;28;20122;-83
2024/01/03 00:11:01;;;;;;;10.40;2.00;;;8.10;99.90;;;;;;5112475;28;20043;-82
2024/01/03 00:13:32;;;;;;;8.68;1.52;;;8.30;99.90;;;;;;5108177;27;20410;-84
2024/01/03 00:16:04;;;;;;;9.50;1.70;;;8.20;99.90;;;;;;5081595;28;20092;-85
2024/01/03 00:18:39;;;;;;;13.98;2.10;;;7.90;99.90;;;;;;5105552;28;20039;-84
2024/01/03 00:21:10;;;;;;;11.48;1.88;;;7.80;99.90;;;;;;5113217;28;20043;-83
2024/01/03 00:23:37;;;;;;;7.82;1.50;;;8.40;99.90;;;;;;5087270;28;20084;-84
2024/01/03 00:26:03;;;;;;;7.82;1.80;;;7.80;99.90;;;;;;5096777;27;20078;-83
2024/01/03 00:28:29;;;;;;;6.45;1.30;;;7.80;99.90;;;;;;5085296;27;20039;-83
2024/01/03 00:30:55;;;;;;;11.20;1.50;;;7.90;99.90;;;;;;5114536;27;20414;-83
2024/01/03 00:33:21;;;;;;;11.25;2.00;;;8.40;99.90;;;;;;5116214;27;20039;-83
2024/01/03 00:35:47;;;;;;;9.48;1.75;;;7.80;99.90;;;;;;5099518;27;20031;-83
2024/01/03 00:38:12;;;;;;;10.45;1.85;;;8.20;99.90;;;;;;5117107;27;20031;-85
2024/01/03 00:40:52;;;;;;;9.73;1.60;;;7.80;99.90;;;;;;5116826;27;20047;-82
2024/01/03 00:43:17;;;;;;;11.15;1.88;;;7.80;99.90;;;;;;5087916;28;20145;-82
2024/01/03 00:45:43;;;;;;;8.15;1.75;;;8.20;99.90;;;;;;5107801;27;20550;-83
2024/01/03 00:48:09;;;;;;;5.93;1.52;;;8.10;99.90;;;;;;5099598;27;20047;-86
2024/01/03 00:50:34;;;;;;;13.30;1.42;;;7.70;99.90;;;;;;5116124;27;20035;-83
2024/01/03 00:53:00;;;;;;;13.60;3.13;;;8.40;99.90;;;;;;5116193;27;20414;-84
2024/01/03 00:55:26;;;;;;;11.68;1.75;;;8.20;99.90;;;;;;5099177;27;20430;-84
2024/01/03 00:57:52;;;;;;;11.20;1.80;;;8.40;99.90;;;;;;5097472;27;20027;-83
2024/01/03 01:00:18;;;;;;;9.68;1.90;;;8.00;99.90;;;;;;5116264;27;20493;-84
2024/01/03 01:02:45;;;;;;;12.45;2.63;;;7.60;99.90;;;;;;5115885;27;20031;-83
2024/01/03 01:05:11;;;;;;;11.70;2.00;;;7.60;99.90;;;;;;5087833;28;20035;-84
2024/01/03 01:07:36;;;;;;;10.00;1.67;;;7.70;99.90;;;;;;5103444;27;20035;-83
2024/01/03 01:10:02;;;;;;;11.85;1.70;;;8.00;99.90;;;;;;5113307;27;20050;-84
2024/01/03 01:12:28;;;;;;;10.73;1.45;;;7.70;99.90;;;;;;5115780;27;20062;-83
2024/01/03 01:14:53;;;;;;;14.45;1.88;;;8.20;99.90;;;;;;5097978;27;20061;-83
2024/01/03 01:17:19;;;;;;;9.93;1.77;;;8.40;99.90;;;;;;5099140;27;20053;-84
2024/01/03 01:19:45;;;;;;;8.90;2.05;;;8.30;99.90;;;;;;5098248;27;20084;-83
2024/01/03 01:22:12;;;;;;;11.88;2.25;;;8.10;99.90;;;;;;5098330;27;20035;-84
2024/01/03 01:24:38;;;;;;;8.05;1.50;;;8.10;99.90;;;;;;5116009;27;20398;-83
2024/01/03 01:27:04;;;;;;;14.93;2.10;;;8.10;99.90;;;;;;5115457;27;20041;-83
2024/01/03 01:29:29;;;;;;;9.88;1.92;;;7.70;99.90;;;;;;5114371;27;20078;-82
2024/01/03 01:31:55;;;;;;;9.38;1.83;;;8.40;99.90;;;;;;5115389;27;20067;-83
2024/01/03 01:34:20;;;;;;;8.93;1.95;;;8.20;99.90;;;;;;5115511;27;20482;-83
2024/01/03 01:36:46;;;;;;;10.40;1.83;;;7.70;99.90;;;;;;5114728;27;20033;-83
2024/01/03 01:39:12;;;;;;;10.30;1.58;;;7.60;99.90;;;;;;5098535;27;20034;-83
2024/01/03 01:41:37;;;;;;;10.88;1.73;;;7.60;99.90;;;;;;5115423;27;20035;-83
2024/01/03 01:44:04;;;;;;;8.82;1.52;;;8.10;99.90;;;;;;5113643;27;20058;-82
2024/01/03 01:46:29;;;;;;;11.60;1.98;;;7.70;99.90;;;;;;5098050;27;20039;-83
2024/01/03 01:48:56;;;;;;;7.25;1.55;;;8.10;99.90;;;;;;5114972;27;20039;-84
2024/01/03 01:51:22;;;;;;;10.20;1.60;;;8.20;99.90;;;;;;5086311;28;20081;-83
2024/01/03 01:53:47;;;;;;;8.40;1.90;;;7.90;99.90;;;;;;5101577;27;20428;-84
2024/01/03 01:56:14;;;;;;;11.73;1.98;;;8.00;99.90;;;;;;5106931;27;20031;-84
2024/01/03 01:58:41;;;;;;;10.80;1.90;;;8.30;99.90;;;;;;5115130;27;20667;-83
2024/01/03 02:01:07;;;;;;;8.20;1.75;;;8.10;99.90;;;;;;5114577;27;20035;-83
2024/01/03 02:03:35;;;;;;;9.50;1.92;;;7.80;99.90;;;;;;5114892;27;20071;-84
2024/01/03 02:06:01;;;;;;;9.82;1.52;;;8.40;99.90;;;;;;5106398;27;20035;-85
2024/01/03 02:08:27;;;;;;;8.30;2.00;;;7.90;99.90;;;;;;5085951;27;20043;-84
2024/01/03 02:10:53;;;;;;;10.15;1.58;;;8.40;99.90;;;;;;5112869;27;20057;-84
2024/01/03 02:13:19;;;;;;;9.43;1.52;;;8.20;99.90;;;;;;5109082;28;20114;-84
2024/01/03 02:15:44;;;;;;;12.40;2.05;;;8.20;99.90;;;;;;5103118;27;20035;-84
2024/01/03 02:18:11;;;;;;;11.50;1.95;;;7.90;99.90;;;;;;5114719;27;20417;-83
2024/01/03 02:20:38;;;;;;;13.63;1.70;;;8.10;99.90;;;;;;5114504;27;20063;-86
2024/01/03 02:23:03;;;;;;;10.18;1.67;;;7.80;99.90;;;;;;5114519;27;20045;-83
2024/01/03 02:25:29;;;;;;;6.32;1.30;;;8.40;99.90;;;;;;5114896;27;20095;-83
2024/01/03 02:27:55;;;;;;;9.85;1.48;;;8.10;99.90;;;;;;5114439;27;20569;-83
2024/01/03 02:30:20;;;;;;;13.90;2.10;;;8.40;99.90;;;;;;5095806;27;20046;-82
2024/01/03 02:32:46;;;;;;;8.55;1.90;;;8.40;99.90;;;;;;5114409;27;20413;-83
2024/01/03 02:35:12;;;;;;;9.05;1.80;;;8.40;99.90;;;;;;5113778;27;20031;-83
2024/01/03 02:37:37;;;;;;;13.10;1.92;;;7.90;99.90;;;;;;5114468;27;20173;-83
2024/01/03 02:40:04;;;;;;;7.50;1.60;;;8.20;99.90;;;;;;5114204;27;20047;-82
2024/01/03 02:42:29;;;;;;;9.38;2.58;;;7.90;99.90;;;;;;5090655;28;20112;-84
2024/01/03 02:44:55;;;;;;;11.35;1.95;;;8.40;99.90;;;;;;5111998;27;20074;-83
2024/01/03 02:47:20;;;;;;;8.73;1.55;;;8.10;99.90;;;;;;5100282;28;20039;-84
2024/01/03 02:49:46;;;;;;;10.13;1.65;;;8.40;99.90;;;;;;5092300;27;20031;-84
2024/01/03 02:52:12;;;;;;;10.40;1.48;;;8.20;99.90;;;;;;5110064;27;20041;-83
2024/01/03 02:54:37;;;;;;;9.60;1.60;;;8.00;99.90;;;;;;5105470;28;20526;-84
2024/01/03 02:57:03;;;;;;;8.70;1.50;;;8.00;99.90;;;;;;5087897;27;20035;-83
2024/01/03 02:59:28;;;;;;;9.43;1.65;;;8.10;99.90;;;;;;5096544;27;20030;-85
2024/01/03 03:01:57;;;;;;;9.65;1.15;;;8.50;99.90;;;;;;5113697;27;20039;-84
2024/01/03 03:04:22;;;;;;;12.68;1.80;;;8.40;99.90;;;;;;5113212;27;20567;-82
2024/01/03 03:06:48;;;;;;;10.93;2.10;;;8.30;99.90;;;;;;5113540;27;20043;-84
2024/01/03 03:09:13;;;;;;;7.95;1.63;;;8.30;99.90;;;;;;5113373;28;20509;-84
2024/01/03 03:11:39;;;;;;;9.63;1.77;;;8.40;99.90;;;;;;5094637;27;20038;-83
2024/01/03 03:14:05;;;;;;;7.78;1.40;;;8.50;99.90;;;;;;5095980;27;20031;-85
2024/01/03 03:16:30;;;;;;;11.48;1.50;;;8.50;99.90;;;;;;5096543;27;20057;-84
2024/01/03 03:18:56;;;;;;;13.70;1.85;;;8.70;99.90;;;;;;5096434;27;20095;-83
2024/01/03 03:21:21;;;;;;;12.15;1.90;;;8.60;99.90;;;;;;5096058;28;20039;-86
2024/01/03 03:23:47;;;;;;;5.50;1.40;;;8.50;99.90;;;;;;5096253;28;20526;-84
2024/01/03 03:26:13;;;;;;;10.05;1.83;;;8.80;99.90;;;;;;5113385;27;20074;-83
2024/01/03 03:28:39;;;;;;;13.43;1.83;;;8.80;99.90;;;;;;5112963;27;20529;-83
2024/01/03 03:31:04;;;;;;;6.47;1.42;;;8.80;99.90;;;;;;5108033;28;20107;-83
2024/01/03 03:33:32;;;;;;;7.68;1.23;;;8.90;99.90;;;;;;5112847;27;20031;-82
2024/01/03 03:35:58;;;;;;;10.07;1.55;;;9.10;99.90;;;;;;5113067;28;20602;-84
2024/01/03 03:38:23;;;;;;;14.95;1.52;;;8.80;99.90;;;;;;5112877;28;20114;-83
2024/01/03 03:40:49;;;;;;;9.35;1.65;;;8.80;99.90;;;;;;5113320;28;20118;-83
2024/01/03 03:43:14;;;;;;;5.90;1.35;;;9.00;99.90;;;;;;5112925;27;20039;-84
2024/01/03 03:45:40;;;;;;;9.45;1.67;;;8.70;99.90;;;;;;5113171;28;20058;-83
2024/01/03 03:48:06;;;;;;;9.05;1.98;;;8.90;99.90;;;;;;5079063;28;20525;-84
2024/01/03 03:50:31;;;;;;;12.73;2.10;;;8.70;99.90;;;;;;5104749;28;20039;-83
2024/01/03 03:52:57;;;;;;;7.85;1.63;;;8.80;99.90;;;;;;5111749;28;20878;-86
2024/01/03 03:55:23;;;;;;;9.80;1.63;;;8.70;99.90;;;;;;5095932;28;20085;-83
2024/01/03 03:57:48;;;;;;;11.00;1.50;;;8.70;99.90;;;;;;5095618;28;20517;-84
2024/01/03 04:00:14;;;;;;;10.68;2.17;;;8.70;99.90;;;;;;5096558;27;20050;-83
2024/01/03 04:02:40;;;;;;;7.75;1.50;;;8.70;99.90;;;;;;5135063;27;20049;-83
2024/01/03 04:05:06;;;;;;;9.38;1.50;;;8.80;99.90;;;;;;5134887;27;20031;-83
2024/01/03 04:07:32;;;;;;;7.90;1.40;;;8.70;99.90;;;;;;5116707;27;20121;-84
2024/01/03 04:09:58;;;;;;;8.00;1.50;;;8.60;99.90;;;;;;5099727;27;20065;-83
2024/01/03 04:12:23;;;;;;;8.80;1.25;;;8.70;99.90;;;;;;5114262;27;20522;-84
2024/01/03 04:14:49;;;;;;;7.45;1.45;;;8.70;99.90;;;;;;5107489;27;20058;-83
2024/01/03 04:17:15;;;;;;;7.97;1.67;;;8.70;99.90;;;;;;5113132;27;20111;-82
2024/01/03 04:19:41;;;;;;;7.25;1.35;;;8.70;99.90;;;;;;5116922;27;20499;-83
2024/01/03 04:22:07;;;;;;;11.73;1.73;;;8.90;99.90;;;;;;5116344;27;20137;-83
2024/01/03 04:24:33;;;;;;;10.15;2.00;;;8.90;99.90;;;;;;5116491;27;20027;-84
2024/01/03 04:26:58;;;;;;;6.30;1.60;;;8.80;99.90;;;;;;5103628;27;20046;-83
2024/01/03 04:29:24;;;;;;;8.60;1.77;;;8.90;99.90;;;;;;5099543;27;20039;-83
2024/01/03 04:31:49;;;;;;;6.82;1.27;;;8.70;99.90;;;;;;5114714;27;20032;-83
2024/01/03 04:34:15;;;;;;;7.53;1.65;;;8.90;99.90;;;;;;5110613;27;20438;-83
2024/01/03 04:36:41;;;;;;;8.68;1.50;;;8.80;99.90;;;;;;5100102;27;20031;-82
2024/01/03 04:39:06;;;;;;;7.03;1.63;;;8.60;99.90;;;;;;5116388;27;20035;-85
2024/01/03 04:41:32;;;;;;;6.20;1.50;;;8.60;99.90;;;;;;5116450;27;20039;-84
2024/01/03 04:43:58;;;;;;;8.18;1.20;;;8.90;99.90;;;;;;5115892;27;20043;-83
2024/01/03 04:46:24;;;;;;;5.90;1.55;;;8.60;99.90;;;;;;5116112;27;20031;-83
2024/01/03 04:48:49;;;;;;;5.60;1.40;;;8.70;99.90;;;;;;5115054;27;20039;-83
2024/01/03 04:51:15;;;;;;;10.43;1.73;;;8.60;99.90;;;;;;5113921;27;20062;-83
2024/01/03 04:53:41;;;;;;;7.53;1.45;;;8.90;99.90;;;;;;5107897;28;20064;-84
2024/01/03 04:56:07;;;;;;;9.95;2.08;;;8.70;99.90;;;;;;5093568;27;20031;-84
2024/01/03 04:58:33;;;;;;;8.55;1.85;;;8.70;99.90;;;;;;5115791;27;20035;-83
2024/01/03 05:00:58;;;;;;;11.77;1.90;;;9.20;99.90;;;;;;5115724;27;20509;-83
2024/01/03 05:03:24;;;;;;;10.43;2.05;;;8.70;99.90;;;;;;5115846;27;20031;-83
2024/01/03 05:05:49;;;;;;;12.43;1.88;;;9.00;99.90;;;;;;5098595;27;20031;-84
2024/01/03 05:08:15;;;;;;;8.02;2.00;;;8.80;99.90;;;;;;5114729;27;20546;-83
2024/01/03 05:10:41;;;;;;;6.47;1.67;;;8.40;99.90;;;;;;5113899;28;20092;-83
2024/01/03 05:13:07;;;;;;;7.60;1.92;;;8.90;99.90;;;;;;5115463;27;20031;-84
2024/01/03 05:15:33;;;;;;;11.07;2.20;;;8.80;99.90;;;;;;5115113;27;20027;-84
2024/01/03 05:17:59;;;;;;;7.40;1.63;;;8.60;99.90;;;;;;5114993;27;20034;-82
2024/01/03 05:20:24;;;;;;;8.32;1.40;;;8.60;99.90;;;;;;5115697;27;20062;-82
2024/01/03 05:22:50;;;;;;;6.28;1.20;;;8.50;99.90;;;;;;5115348;27;20027;-82
2024/01/03 05:25:15;;;;;;;7.13;1.27;;;8.30;99.90;;;;;;5115420;27;20031;-81
2024/01/03 05:27:41;;;;;;;5.05;1.20;;;8.60;99.90;;;;;;5114059;27;20107;-83
2024/01/03 05:30:07;;;;;;;5.75;1.30;;;8.70;99.90;;;;;;5115669;27;20057;-82
2024/01/03 05:32:33;;;;;;;4.75;1.33;;;8.00;99.90;;;;;;5115426;27;20495;-83
2024/01/03 05:34:58;;;;;;;4.72;1.30;;;8.50;99.90;;;;;;5098167;27;20042;-83
2024/01/03 05:37:24;;;;;;;7.30;1.40;;;8.20;99.90;;;;;;5087811;28;20115;-82
2024/01/03 05:39:49;;;;;;;7.07;1.75;;;8.10;99.90;;;;;;5102280;27;20482;-83
2024/01/03 05:42:15;;;;;;;8.00;1.80;;;8.00;99.90;;;;;;5110978;28;20096;-83
2024/01/03 05:44:41;;;;;;;10.45;1.90;;;8.00;99.90;;;;;;5089343;27;20100;-83
2024/01/03 05:47:06;;;;;;;9.85;2.28;;;8.50;99.90;;;;;;5097186;27;20043;-83
2024/01/03 05:49:34;;;;;;;20.02;2.40;;;8.40;99.90;;;;;;5114815;27;20038;-83
2024/01/03 05:51:59;;;;;;;15.05;2.53;;;8.10;99.90;;;;;;5114802;27;20418;-83
2024/01/03 05:54:26;;;;;;;15.75;3.15;;;8.20;99.90;;;;;;5114980;27;20027;-83
2024/01/03 05:56:52;;;;;;;18.73;2.97;;;8.20;99.90;;;;;;5097434;27;20092;-83
2024/01/03 05:59:17;;;;;;;21.00;3.78;;;8.60;99.90;;;;;;5114999;27;20550;-83
2024/01/03 06:01:45;;;;;;;22.40;2.95;;;8.50;99.90;;;;;;5114831;27;20039;-84
2024/01/03 06:04:11;;;;;;;20.30;2.83;;;8.20;99.90;;;;;;5114025;27;20517;-82
2024/01/03 06:06:37;;;;;;;24.65;3.40;;;8.30;99.90;;;;;;5114227;27;20035;-85
2024/01/03 06:09:02;;;;;;;14.50;2.67;;;8.30;99.90;;;;;;5087375;27;20340;-84
2024/01/03 06:11:28;;;;;;;19.55;3.20;;;8.30;99.90;;;;;;5114496;27;20042;-83
2024/01/03 06:13:54;;;;;;;13.27;3.03;;;8.70;99.90;;;;;;5112751;27;20117;-84
2024/01/03 06:16:20;;;;;;;20.98;3.03;;;8.80;99.90;;;;;;5112865;27;20063;-83
2024/01/03 06:18:45;;;;;;;14.40;3.38;;;8.90;99.90;;;;;;5114662;27;20058;-83
2024/01/03 06:21:11;;;;;;;19.90;3.00;;;8.90;99.90;;;;;;5114034;27;20127;-84
2024/01/03 06:23:39;;;;;;;19.98;2.90;;;8.30;99.90;;;;;;5097306;27;20039;-83
2024/01/03 06:26:08;;;;;;;17.92;2.90;;;8.90;99.90;;;;;;5082144;27;20205;-84
2024/01/03 06:28:34;;;;;;;14.75;2.88;;;8.40;99.90;;;;;;5114276;27;20076;-84
2024/01/03 06:31:02;;;;;;;18.90;2.70;;;8.40;99.90;;;;;;5112227;27;20043;-83
2024/01/03 06:33:27;;;;;;;20.73;3.05;;;8.40;99.90;;;;;;5114047;27;20042;-84
2024/01/03 06:35:54;;;;;;;22.35;3.42;;;8.40;99.90;;;;;;5113805;27;20034;-85
2024/01/03 06:38:19;;;;;;;17.63;2.95;;;8.40;99.90;;;;;;5114342;27;20396;-83
2024/01/03 06:40:45;;;;;;;16.25;2.72;;;8.50;99.90;;;;;;5114015;27;20039;-82
2024/01/03 06:43:10;;;;;;;20.38;2.65;;;8.90;99.90;;;;;;5113691;27;20039;-84
2024/01/03 06:45:36;;;;;;;19.63;2.92;;;8.60;99.90;;;;;;5114043;27;20639;-84
2024/01/03 06:48:02;;;;;;;15.95;2.80;;;8.80;99.90;;;;;;5113466;27;20046;-83
2024/01/03 06:50:28;;;;;;;18.65;3.45;;;8.70;99.90;;;;;;5094581;27;20042;-84
2024/01/03 06:52:53;;;;;;;18.95;3.88;;;8.70;99.90;;;;;;5095789;27;20047;-84
2024/01/03 06:55:19;;;;;;;16.77;2.63;;;8.80;99.90;;;;;;5113795;27;20042;-84
2024/01/03 06:57:45;;;;;;;19.08;2.97;;;8.70;99.90;;;;;;5113365;27;20051;-85
2024/01/03 07:00:11;;;;;;;18.23;2.60;;;8.90;99.90;;;;;;5113770;27;20089;-84
2024/01/03 07:02:37;;;;;;;22.13;3.30;;;8.70;99.90;;;;;;5088948;28;20073;-84
2024/01/03 07:05:03;;;;;;;16.50;2.90;;;8.70;99.90;;;;;;5089597;27;20039;-84
2024/01/03 07:07:28;;;;;;;15.00;3.05;;;8.60;99.90;;;;;;5084752;28;20447;-84
2024/01/03 07:09:54;;;;;;;19.00;2.75;;;8.60;99.90;;;;;;5099519;27;20039;-84
2024/01/03 07:12:19;;;;;;;14.63;2.38;;;8.50;99.90;;;;;;5089184;27;20530;-84
2024/01/03 07:14:45;;;;;;;12.88;2.25;;;8.60;99.90;;;;;;5110490;27;20059;-83
2024/01/03 07:17:11;;;;;;;15.55;2.55;;;8.70;99.90;;;;;;5093324;28;20666;-84
2024/01/03 07:19:36;;;;;;;14.93;3.08;;;8.70;99.90;;;;;;5094227;28;20109;-84
2024/01/03 07:22:02;;;;;;;16.58;3.22;;;8.60;99.90;;;;;;5099158;28;20478;-84
2024/01/03 07:24:28;;;;;;;20.98;4.35;;;8.60;99.90;;;;;;5101154;28;20039;-84
2024/01/03 07:26:53;;;;;;;16.15;2.53;;;8.60;99.90;;;;;;5090736;27;20486;-84
2024/01/03 07:29:19;;;;;;;10.35;2.63;;;8.90;99.90;;;;;;5083145;28;20133;-84
2024/01/03 07:31:44;;;;;;;15.68;3.55;;;8.60;99.90;;;;;;5097520;28;20039;-83
2024/01/03 07:34:11;;;;;;;13.23;2.70;;;8.50;99.90;;;;;;5094492;28;20049;-84
2024/01/03 07:36:36;;;;;;;26.27;6.03;;;8.70;99.90;;;;;;5106248;28;20039;-84
2024/01/03 07:39:03;;;;;;;16.95;3.53;;;8.50;99.90;;;;;;5105025;28;20402;-83
2024/01/03 07:41:30;;;;;;;12.52;2.70;;;8.50;99.90;;;;;;5112662;28;20031;-84
2024/01/03 07:43:56;;;;;;;16.25;3.35;;;8.50;99.90;;;;;;5097678;28;21021;-83
2024/01/03 07:46:23;;;;;;;19.05;3.28;;;8.60;99.90;;;;;;5101141;28;20561;-84
2024/01/03 07:48:49;;;;;;;14.10;2.80;;;8.70;99.90;;;;;;5104629;28;20051;-84
2024/01/03 07:51:18;;;;;;;12.70;2.92;;;8.90;99.90;;;;;;5106342;28;20032;-84
2024/01/03 07:53:44;;;;;;;17.55;2.65;;;8.60;99.90;;;;;;5095684;28;20463;-84
2024/01/03 07:56:10;;;;;;;16.65;2.63;;;8.70;99.90;;;;;;5095040;28;20034;-84
2024/01/03 07:58:35;;;;;;;12.50;2.20;;;8.70;99.90;;;;;;5102283;28;20027;-85
2024/01/03 08:01:01;;;;;;;17.75;2.47;;;8.60;99.90;;;;;;5107918;28;20050;-84
2024/01/03 08:03:27;;;;;;;15.95;2.75;;;8.60;99.90;;;;;;5100953;28;20047;-82
2024/01/03 08:05:56;;;;;;;16.10;2.88;;;8.50;99.90;;;;;;5109699;28;20035;-84
2024/01/03 08:08:21;;;;;;;15.13;2.88;;;8.70;99.90;;;;;;5106607;28;20039;-84
2024/01/03 08:10:47;;;;;;;17.13;2.60;;;8.50;99.90;;;;;;5109707;28;20403;-84
2024/01/03 08:13:12;;;;;;;13.35;2.33;;;8.80;99.90;;;;;;5108666;28;20035;-84
2024/01/03 08:15:38;;;;;;;14.02;2.50;;;8.40;99.90;;;;;;5108164;28;20074;-83
2024/01/03 08:18:04;;;;;;;16.42;2.42;;;8.80;99.90;;;;;;5094155;28;20370;-85
2024/01/03 08:20:30;;;;;;;15.68;2.42;;;8.40;99.90;;;;;;5101085;28;20449;-85
2024/01/03 08:22:55;;;;;;;13.77;1.98;;;8.50;99.90;;;;;;5099659;28;20035;-84
2024/01/03 08:25:22;;;;;;;14.30;3.10;;;8.80;99.90;;;;;;5108487;28;20031;-85
2024/01/03 08:27:48;;;;;;;9.48;1.85;;;8.40;99.90;;;;;;5108811;28;20031;-85
2024/01/03 08:30:13;;;;;;;9.43;1.63;;;8.40;99.90;;;;;;5106986;28;20122;-85
2024/01/03 08:32:40;;;;;;;8.43;1.65;;;8.50;99.90;;;;;;5088837;28;20042;-85
2024/01/03 08:35:07;;;;;;;11.60;1.42;;;8.50;99.90;;;;;;5107388;28;20031;-84
2024/01/03 08:37:33;;;;;;;11.38;2.40;;;8.40;99.90;;;;;;5111567;28;20104;-85
2024/01/03 08:39:59;;;;;;;9.65;1.90;;;8.40;99.90;;;;;;5111971;28;20068;-85
2024/01/03 08:42:25;;;;;;;10.55;1.80;;;8.80;99.90;;;;;;5100485;28;20040;-85
2024/01/03 08:44:53;;;;;;;10.45;1.60;;;8.90;99.90;;;;;;5108050;28;20035;-83
2024/01/03 08:47:19;;;;;;;10.60;2.17;;;8.30;99.90;;;;;;5114820;27;20100;-84
2024/01/03 08:49:45;;;;;;;8.95;1.55;;;8.40;99.90;;;;;;5099474;27;20027;-84
2024/01/03 08:52:11;;;;;;;10.38;1.90;;;8.80;99.90;;;;;;5116235;27;20031;-85
2024/01/03 08:54:36;;;;;;;7.18;1.83;;;8.20;99.90;;;;;;5086788;27;20171;-83
2024/01/03 08:57:03;;;;;;;13.88;2.38;;;8.60;99.90;;;;;;5112544;27;20036;-84
2024/01/03 08:59:28;;;;;;;14.70;2.50;;;8.20;99.90;;;;;;5104997;27;20042;-84
2024/01/03 09:01:56;;;;;;;15.65;2.78;;;8.40;99.90;;;;;;5108278;27;20375;-83
2024/01/03 09:04:22;;;;;;;12.20;2.10;;;8.80;99.90;;;;;;5110604;28;20035;-83
2024/01/03 09:06:50;;;;;;;16.52;2.42;;;8.40;99.90;;;;;;5099512;27;20508;-84
2024/01/03 09:09:16;;;;;;;14.65;2.38;;;8.30;99.90;;;;;;5091147;27;20031;-83
2024/01/03 09:11:42;;;;;;;16.20;2.53;;;8.40;99.90;;;;;;5115439;27;20046;-84
2024/01/03 09:14:07;;;;;;;16.00;2.85;;;8.60;99.90;;;;;;5102792;28;20096;-83
2024/01/03 09:16:33;;;;;;;12.65;2.35;;;8.40;99.90;;;;;;5110907;27;20544;-83
2024/01/03 09:18:59;;;;;;;10.25;2.15;;;8.60;99.90;;;;;;5109313;27;20034;-86
2024/01/03 09:21:26;;;;;;;11.25;2.33;;;8.40;99.90;;;;;;5115385;27;20490;-84
2024/01/03 09:23:52;;;;;;;15.82;2.55;;;8.40;99.90;;;;;;5086182;27;20033;-84
2024/01/03 09:26:22;;;;;;;14.45;2.30;;;8.40;99.90;;;;;;5115523;27;20117;-84
2024/01/03 09:28:48;;;;;;;11.65;2.58;;;8.40;99.90;;;;;;5115458;27;20055;-84
2024/01/03 09:31:14;;;;;;;15.25;2.67;;;8.70;99.90;;;;;;5111484;27;20042;-83
2024/01/03 09:33:40;;;;;;;14.07;2.65;;;8.40;99.90;;;;;;5114879;27;20039;-84
2024/01/03 09:36:06;;;;;;;14.35;2.25;;;8.80;99.90;;;;;;5098327;27;20502;-84
2024/01/03 09:38:32;;;;;;;16.77;4.57;;;8.50;99.90;;;;;;5110326;27;20043;-85
2024/01/03 09:40:58;;;;;;;19.15;3.15;;;8.60;99.90;;;;;;5088252;27;20123;-86
2024/01/03 09:43:24;;;;;;;14.68;2.50;;;8.80;99.90;;;;;;5095415;27;20042;-85
2024/01/03 09:45:50;;;;;;;10.68;2.13;;;8.70;99.90;;;;;;5104207;28;20043;-84
2024/01/03 09:48:16;;;;;;;10.48;2.38;;;9.10;99.90;;;;;;5108033;27;20069;-84
2024/01/03 09:50:41;;;;;;;11.70;2.80;;;9.10;99.90;;;;;;5106645;27;20104;-85
2024/01/03 09:53:10;;;;;;;13.93;2.85;;;9.00;99.90;;;;;;5105477;27;20035;-84
2024/01/03 09:55:35;;;;;;;12.80;2.40;;;8.70;99.90;;;;;;5101597;28;20371;-84
2024/01/03 09:58:01;;;;;;;13.45;2.83;;;9.00;99.90;;;;;;5100311;27;20118;-85
2024/01/03 10:00:30;;;;;;;16.65;3.67;;;9.00;99.90;;;;;;5104759;28;20063;-84
2024/01/03 10:03:09;;;;;;;13.40;2.35;;;8.60;99.90;;;;;;5111111;27;20117;-84
2024/01/03 10:05:35;;;;;;;14.85;2.10;;;8.30;99.90;;;;;;5086929;27;20039;-84
2024/01/03 10:08:17;;;;;;;14.85;3.08;;;8.40;99.90;;;;;;5113339;27;20039;-87
2024/01/03 10:10:45;;;;;;;13.63;2.80;;;8.40;99.90;;;;;;5111713;27;20076;-84
2024/01/03 10:13:24;;;;;;;14.52;2.38;;;8.40;99.90;;;;;;5114214;27;20050;-85
2024/01/03 10:15:50;;;;;;;7.95;2.15;;;8.40;99.90;;;;;;5090773;27;20031;-85
2024/01/03 10:18:17;;;;;;;10.75;2.20;;;8.50;99.90;;;;;;5109961;27;20024;-84
2024/01/03 10:20:43;;;;;;;10.15;2.03;;;8.80;99.90;;;;;;5091126;27;20035;-86
2024/01/03 10:23:11;;;;;;;10.15;2.17;;;8.60;99.90;;;;;;5109524;27;20035;-83
2024/01/03 10:25:44;;;;;;;10.98;1.92;;;8.70;99.90;;;;;;5101306;28;20051;-84
2024/01/03 10:28:13;;;;;;;14.90;2.40;;;8.80;99.90;;;;;;5089031;27;20035;-85
2024/01/03 10:30:39;;;;;;;7.75;1.60;;;8.90;99.90;;;;;;5102343;27;20284;-85
2024/01/03 10:33:06;;;;;;;9.50;2.00;;;9.20;99.90;;;;;;5114474;27;20105;-85
2024/01/03 10:35:37;;;;;;;9.38;1.70;;;9.20;99.90;;;;;;5086161;27;20031;-85
2024/01/03 10:38:04;;;;;;;12.50;2.00;;;9.30;99.90;;;;;;5113482;27;20042;-83
2024/01/03 10:40:34;;;;;;;11.65;2.38;;;9.30;99.90;;;;;;5097306;27;20038;-84
2024/01/03 10:43:00;;;;;;;11.93;2.20;;;9.40;99.90;;;;;;5101834;28;20031;-85
2024/01/03 10:45:27;;;;;;;8.48;1.65;;;9.80;99.90;;;;;;5110566;27;20031;-85
2024/01/03 10:47:53;;;;;;;12.13;2.08;;;9.50;99.90;;;;;;5095085;27;20481;-85
2024/01/03 10:50:19;;;;;;;7.35;1.95;;;9.50;99.90;;;;;;5097051;27;20032;-85
2024/01/03 10:52:46;;;;;;;10.52;1.33;;;9.40;99.90;;;;;;5097204;27;20391;-83
2024/01/03 10:55:22;;;;;;;10.85;1.80;;;9.40;99.90;;;;;;5096806;27;20401;-85
2024/01/03 10:57:56;;;;;;;9.30;1.42;;;9.30;99.90;;;;;;5096610;27;20027;-85
2024/01/03 11:00:33;;;;;;;8.60;1.90;;;9.40;99.90;;;;;;5096474;27;20058;-84
2024/01/03 11:03:20;;;;;;;12.63;1.95;;;9.30;99.90;;;;;;5109615;27;20547;-85
2024/01/03 11:06:19;;;;;;;13.57;1.63;;;9.40;99.90;;;;;;5090599;27;20035;-86
2024/01/03 11:08:51;;;;;;;9.70;2.28;;;9.50;99.90;;;;;;5075163;28;20028;-85
2024/01/03 11:11:37;;;;;;;10.25;1.73;;;9.60;99.90;;;;;;5110684;27;20067;-85
2024/01/03 11:14:18;;;;;;;12.50;3.08;;;9.50;99.90;;;;;;5100252;28;20051;-85
2024/01/03 11:16:45;;;;;;;10.80;2.50;;;9.60;99.90;;;;;;5109825;27;20065;-86
2024/01/03 11:19:11;;;;;;;17.05;2.42;;;9.50;99.90;;;;;;5087302;27;20043;-85
2024/01/03 11:21:42;;;;;;;14.68;2.78;;;9.80;99.90;;;;;;5106815;27;20031;-85
2024/01/03 11:24:20;;;;;;;13.50;2.58;;;9.50;99.90;;;;;;5100795;28;20101;-85
2024/01/03 11:26:58;;;;;;;12.25;2.35;;;9.40;99.90;;;;;;5113708;28;20035;-84
2024/01/03 11:29:36;;;;;;;11.57;2.00;;;9.40;99.90;;;;;;5102042;28;20503;-83
2024/01/03 11:32:04;;;;;;;15.25;2.35;;;9.50;99.90;;;;;;5104614;28;20035;-86
2024/01/03 11:34:40;;;;;;;15.07;2.88;;;9.30;99.90;;;;;;5104826;28;20042;-85
2024/01/03 11:37:27;;;;;;;10.25;2.10;;;9.70;99.90;;;;;;5094469;28;20035;-84
2024/01/03 11:39:54;;;;;;;16.65;3.35;;;9.70;99.90;;;;;;5113065;28;20126;-85
2024/01/03 11:42:32;;;;;;;16.35;2.75;;;9.80;99.90;;;;;;5112971;28;20084;-85
2024/01/03 11:45:05;;;;;;;14.13;2.72;;;9.50;99.90;;;;;;5095024;28;20099;-85
2024/01/03 11:47:35;;;;;;;;;;;9.40;99.90;;;;;;5103478;28;20627;-85
2024/01/03 11:50:04;;;;;;;18.33;2.47;;;9.60;99.90;;;;;;5108927;28;20002;-85
2024/01/03 11:52:36;;;;;;;14.93;2.33;;;9.50;99.90;;;;;;5109500;28;20047;-84
2024/01/03 11:55:13;;;;;;;13.50;2.92;;;9.60;99.90;;;;;;5082607;28;20100;-85
2024/01/03 11:57:45;;;;;;;19.23;3.35;;;9.70;99.90;;;;;;5095755;28;20035;-85
2024/01/03 12:00:15;;;;;;;16.38;2.88;;;9.70;99.90;;;;;;5110455;28;20035;-85
2024/01/03 12:02:55;;;;;;;13.48;3.00;;;9.70;99.90;;;;;;5081452;28;20094;-84
2024/01/03 12:05:25;;;;;;;14.38;2.95;;;9.90;99.90;;;;;;5132624;27;20039;-84
2024/01/03 12:07:53;;;;;;;12.93;2.47;;;9.80;99.90;;;;;;5113776;28;20031;-84
2024/01/03 12:10:20;;;;;;;15.48;3.08;;;9.90;99.90;;;;;;5105409;28;20038;-85
2024/01/03 12:12:47;;;;;;;12.02;2.67;;;9.80;99.90;;;;;;5100388;28;20063;-85
2024/01/03 12:15:25;;;;;;;15.02;3.38;;;10.10;99.90;;;;;;5108280;28;20043;-84
2024/01/03 12:17:51;;;;;;;12.82;2.40;;;9.80;99.90;;;;;;5109461;28;20073;-84
2024/01/03 12:20:20;;;;;;;14.20;2.92;;;9.90;99.90;;;;;;5096591;27;20038;-85
2024/01/03 12:22:46;;;;;;;16.20;2.67;;;10.20;99.90;;;;;;5116604;27;20062;-85
2024/01/03 12:25:24;;;;;;;17.85;2.42;;;10.00;99.90;;;;;;5113961;27;20506;-84
2024/01/03 12:27:55;;;;;;;19.40;3.75;;;9.80;99.90;;;;;;5106887;27;20160;-85
2024/01/03 12:30:21;;;;;;;16.90;2.97;;;9.90;99.90;;;;;;5115553;27;20032;-87
2024/01/03 12:32:47;;;;;;;13.88;3.03;;;9.80;99.90;;;;;;5095622;28;20035;-85
2024/01/03 12:35:14;;;;;;;12.20;2.47;;;9.70;99.90;;;;;;5112271;27;20075;-86
2024/01/03 12:37:47;;;;;;;15.88;2.35;;;9.70;99.90;;;;;;5091399;27;20392;-86
2024/01/03 12:40:17;;;;;;;14.32;2.40;;;9.60;99.90;;;;;;5107620;27;20123;-85
2024/01/03 12:42:43;;;;;;;14.00;2.42;;;9.60;99.90;;;;;;5116503;27;20505;-86
2024/01/03 12:45:10;;;;;;;18.20;2.95;;;9.70;99.90;;;;;;5116152;27;20046;-85
2024/01/03 12:47:36;;;;;;;12.95;2.42;;;9.60;99.90;;;;;;5094735;28;20074;-85
2024/01/03 12:50:02;;;;;;;14.60;2.65;;;9.60;99.90;;;;;;5114206;27;20062;-85